Time;durP1;ratioP1;P1;durP2;ratioP2;P2;SDS_P1;SDS_P2;PMS_P1;PMS_P2;Temp;Humidity;BMP_temperature;BMP_pressure;BME280_temperature;BME280_humidity;BME280_pressure;Samples;Min_cycle;Max_cycle;Signal;HPM_P1;HPM_P2
2021/07/03 15:42:31;;;;;;;8.25;6.22;;;;;;;;;;5154478;27;20490;-80
2021/07/03 15:44:57;;;;;;;5.60;4.50;;;;;;;;;;5133767;27;20118;-80
2021/07/03 15:47:23;;;;;;;8.07;3.70;;;;;;;;;;5133710;28;20035;-81
2021/07/03 15:49:49;;;;;;;5.80;3.90;;;;;;;;;;5133635;27;20043;-80
2021/07/03 15:52:15;;;;;;;11.93;4.43;;;;;;;;;;5133564;27;20133;-80
2021/07/03 15:54:41;;;;;;;8.98;3.63;;;;;;;;;;5133568;28;20036;-82
2021/07/03 15:57:07;;;;;;;10.70;6.85;;;;;;;;;;5133440;27;20027;-80
2021/07/03 15:59:34;;;;;;;7.32;4.28;;;;;;;;;;5133467;27;20112;-80
2021/07/03 16:02:00;;;;;;;6.60;3.38;;;;;;;;;;5116214;28;20031;-80
2021/07/03 16:04:26;;;;;;;9.55;3.90;;;;;;;;;;5133290;27;20020;-80
2021/07/03 16:06:52;;;;;;;7.95;4.28;;;;;;;;;;5116082;28;20028;-83
2021/07/03 16:09:18;;;;;;;7.95;6.28;;;;;;;;;;5133338;27;20114;-82
2021/07/03 16:11:44;;;;;;;6.88;3.53;;;;;;;;;;5133278;28;20451;-81
2021/07/03 16:14:11;;;;;;;8.90;3.45;;;;;;;;;;5106047;28;20040;-84
2021/07/03 16:16:38;;;;;;;8.40;3.80;;;;;;;;;;5095220;28;20039;-82
2021/07/03 16:19:04;;;;;;;3.72;3.38;;;;;;;;;;5097030;28;20038;-83
2021/07/03 16:21:30;;;;;;;6.07;3.63;;;;;;;;;;5053852;28;20132;-82
2021/07/03 16:23:56;;;;;;;9.02;3.92;;;;;;;;;;5035844;28;20411;-82
2021/07/03 16:26:22;;;;;;;6.32;3.13;;;;;;;;;;5053999;28;20028;-82
2021/07/03 16:28:48;;;;;;;9.18;3.45;;;;;;;;;;5035863;28;20052;-82
2021/07/03 16:31:14;;;;;;;8.18;3.65;;;;;;;;;;5053865;28;20029;-82
2021/07/03 16:33:41;;;;;;;8.13;3.65;;;;;;;;;;5053759;28;20026;-81
2021/07/03 16:36:07;;;;;;;9.13;3.72;;;;;;;;;;5053641;28;20029;-82
2021/07/03 16:38:33;;;;;;;5.55;3.40;;;;;;;;;;5053576;28;20022;-82
2021/07/03 16:41:05;;;;;;;7.47;3.50;;;;;;;;;;5052963;28;20430;-82
2021/07/03 16:43:32;;;;;;;6.25;3.40;;;;;;;;;;5053842;28;20022;-82
2021/07/03 16:45:58;;;;;;;7.45;3.22;;;;;;;;;;5053642;28;20032;-82
2021/07/03 16:48:24;;;;;;;10.60;3.45;;;;;;;;;;5053330;28;20025;-82
2021/07/03 16:53:53;;;;;;;4.57;2.88;;;;;;;;;;5039972;28;20036;-82
2021/07/03 16:56:19;;;;;;;9.85;3.25;;;;;;;;;;5039850;28;20407;-82
2021/07/03 16:58:45;;;;;;;9.98;3.47;;;;;;;;;;5021745;28;20033;-82
2021/07/03 17:01:11;;;;;;;6.50;3.33;;;;;;;;;;5039595;28;20324;-81
2021/07/03 17:03:37;;;;;;;5.82;3.33;;;;;;;;;;5040025;28;20056;-82
2021/07/03 17:06:04;;;;;;;6.50;3.63;;;;;;;;;;5022267;28;20033;-82
2021/07/03 17:08:30;;;;;;;5.03;2.92;;;;;;;;;;5022371;28;20029;-81
2021/07/03 17:10:56;;;;;;;8.32;3.25;;;;;;;;;;5021675;28;20442;-82
2021/07/03 17:13:22;;;;;;;6.60;3.33;;;;;;;;;;5021958;28;20398;-81
2021/07/03 17:15:48;;;;;;;7.32;3.33;;;;;;;;;;5039506;28;20022;-81
2021/07/03 17:18:14;;;;;;;8.48;3.88;;;;;;;;;;5039373;28;20023;-82
2021/07/03 17:20:40;;;;;;;8.23;4.00;;;;;;;;;;5021755;28;20083;-81
2021/07/03 17:23:06;;;;;;;10.90;3.60;;;;;;;;;;5039331;28;20021;-81
2021/07/03 17:25:34;;;;;;;4.70;3.30;;;;;;;;;;5039524;28;20308;-82
2021/07/03 17:28:00;;;;;;;6.70;3.65;;;;;;;;;;5039205;28;20045;-81
2021/07/03 17:30:26;;;;;;;8.40;3.72;;;;;;;;;;5039302;28;20075;-81
2021/07/03 17:32:52;;;;;;;6.93;3.78;;;;;;;;;;5039354;28;20056;-82
2021/07/03 17:35:52;;;;;;;7.00;3.35;;;;;;;;;;5039056;28;20068;-82
2021/07/03 17:38:19;;;;;;;10.18;3.55;;;;;;;;;;5038781;28;20037;-81
2021/07/03 17:40:45;;;;;;;4.93;3.05;;;;;;;;;;5038799;28;20048;-81
2021/07/03 17:43:11;;;;;;;5.30;3.17;;;;;;;;;;5038879;28;20088;-82
2021/07/03 17:45:37;;;;;;;12.95;3.70;;;;;;;;;;5039134;28;20416;-82
2021/07/03 17:48:03;;;;;;;11.52;3.13;;;;;;;;;;5039031;28;20017;-82
2021/07/03 17:50:29;;;;;;;11.88;3.15;;;;;;;;;;5020842;28;20033;-82
2021/07/03 17:52:56;;;;;;;6.05;2.97;;;;;;;;;;5038848;28;20056;-80
2021/07/03 17:55:22;;;;;;;7.15;3.25;;;;;;;;;;5038669;28;20044;-82
2021/07/03 17:57:48;;;;;;;4.18;3.08;;;;;;;;;;5038600;28;20155;-82
2021/07/03 18:00:15;;;;;;;6.38;3.08;;;;;;;;;;5038582;28;20425;-82
2021/07/03 18:02:43;;;;;;;5.78;3.30;;;;;;;;;;5038551;28;20045;-82
2021/07/03 18:05:09;;;;;;;4.60;3.30;;;;;;;;;;5037957;28;20045;-85
2021/07/03 18:07:35;;;;;;;5.72;3.58;;;;;;;;;;5038859;28;20335;-80
2021/07/03 18:10:01;;;;;;;6.00;2.90;;;;;;;;;;5020970;28;20056;-80
2021/07/03 18:12:27;;;;;;;10.02;3.22;;;;;;;;;;5038280;28;20330;-80
2021/07/03 18:14:53;;;;;;;6.68;3.15;;;;;;;;;;5038298;28;20025;-80
2021/07/03 18:17:20;;;;;;;7.18;3.58;;;;;;;;;;5038295;28;20025;-80
2021/07/03 18:19:46;;;;;;;5.85;3.20;;;;;;;;;;5038178;28;20021;-80
2021/07/03 18:22:13;;;;;;;8.60;3.70;;;;;;;;;;5038144;28;20060;-81
2021/07/03 18:24:39;;;;;;;9.13;3.58;;;;;;;;;;5038123;28;20022;-80
2021/07/03 18:27:05;;;;;;;4.53;3.25;;;;;;;;;;5038269;28;20028;-80
2021/07/03 18:29:31;;;;;;;5.35;3.22;;;;;;;;;;5038101;28;20029;-79
2021/07/03 18:31:57;;;;;;;5.80;3.65;;;;;;;;;;5037775;28;20018;-80
2021/07/03 18:34:23;;;;;;;5.50;3.40;;;;;;;;;;5038016;28;20029;-79
2021/07/03 18:36:49;;;;;;;6.47;3.85;;;;;;;;;;5037894;28;20319;-79
2021/07/03 18:39:16;;;;;;;6.28;3.38;;;;;;;;;;5037887;28;20029;-79
2021/07/03 18:41:43;;;;;;;5.88;4.00;;;;;;;;;;5037420;28;20057;-79
2021/07/03 18:44:10;;;;;;;6.95;2.92;;;;;;;;;;5037728;28;20068;-79
2021/07/03 18:46:36;;;;;;;6.13;3.65;;;;;;;;;;5037636;28;20029;-79
2021/07/03 18:49:03;;;;;;;7.25;3.60;;;;;;;;;;5037741;28;20072;-79
2021/07/03 18:51:29;;;;;;;7.78;3.60;;;;;;;;;;5019991;28;20123;-79
2021/07/03 18:53:55;;;;;;;7.13;3.47;;;;;;;;;;5037475;28;20032;-79
2021/07/03 18:56:21;;;;;;;9.20;3.60;;;;;;;;;;5037539;28;20029;-79
2021/07/03 18:58:47;;;;;;;10.57;4.05;;;;;;;;;;5019886;28;20029;-80
2021/07/03 19:01:14;;;;;;;9.48;4.30;;;;;;;;;;5037671;28;20082;-79
2021/07/03 19:03:40;;;;;;;12.88;4.82;;;;;;;;;;5037332;28;20026;-80
2021/07/03 19:06:06;;;;;;;10.27;4.63;;;;;;;;;;5037467;28;20028;-80
2021/07/03 19:08:32;;;;;;;12.73;4.82;;;;;;;;;;5037322;28;20022;-81
2021/07/03 19:10:59;;;;;;;10.35;4.68;;;;;;;;;;5037532;28;20029;-80
2021/07/03 19:13:25;;;;;;;17.17;7.90;;;;;;;;;;5037279;28;20057;-81
2021/07/03 19:15:51;;;;;;;17.60;9.77;;;;;;;;;;5037262;28;20457;-81
2021/07/03 19:18:17;;;;;;;27.38;11.82;;;;;;;;;;5037088;28;20311;-81
2021/07/03 19:20:44;;;;;;;23.95;11.95;;;;;;;;;;5037168;28;20025;-81
2021/07/03 19:23:10;;;;;;;26.30;12.77;;;;;;;;;;5037072;28;20076;-79
2021/07/03 19:25:37;;;;;;;21.95;11.75;;;;;;;;;;5019503;28;20029;-79
2021/07/03 19:28:04;;;;;;;20.42;9.68;;;;;;;;;;5019539;28;20017;-80
2021/07/03 19:30:30;;;;;;;22.80;11.68;;;;;;;;;;5037047;28;20025;-80
2021/07/03 19:32:57;;;;;;;19.73;12.25;;;;;;;;;;5037219;28;20323;-80
2021/07/03 19:35:38;;;;;;;20.65;11.23;;;;;;;;;;5036811;28;20154;-80
2021/07/03 19:38:04;;;;;;;;;;;;;;;;;;5037468;28;20353;-80
2021/07/03 19:40:30;;;;;;;15.90;7.43;;;;;;;;;;5036774;28;20351;-80
2021/07/03 19:42:56;;;;;;;12.38;6.30;;;;;;;;;;5036896;28;20021;-80
2021/07/03 19:45:23;;;;;;;11.02;5.55;;;;;;;;;;5019113;28;20040;-80
2021/07/03 19:47:49;;;;;;;12.45;5.25;;;;;;;;;;5018968;28;20036;-80
2021/07/03 19:50:16;;;;;;;7.70;4.30;;;;;;;;;;5036782;28;20411;-80
2021/07/03 19:52:42;;;;;;;7.90;4.20;;;;;;;;;;5036926;28;20064;-80
2021/07/03 19:55:09;;;;;;;16.73;4.28;;;;;;;;;;5036770;28;20029;-79
2021/07/03 19:57:35;;;;;;;8.43;4.38;;;;;;;;;;5036608;28;20029;-80
2021/07/03 20:00:09;;;;;;;12.35;4.25;;;;;;;;;;5036279;28;20029;-79
2021/07/03 20:02:35;;;;;;;9.77;4.70;;;;;;;;;;5036668;28;20025;-80
2021/07/03 20:05:02;;;;;;;8.50;4.18;;;;;;;;;;5036814;28;20033;-81
2021/07/03 20:07:28;;;;;;;7.25;4.10;;;;;;;;;;5036661;28;20056;-80
2021/07/03 20:09:54;;;;;;;7.22;4.57;;;;;;;;;;5018788;28;20033;-82
2021/07/03 20:12:20;;;;;;;10.18;4.85;;;;;;;;;;5036933;28;20466;-84
2021/07/03 20:14:46;;;;;;;9.95;5.40;;;;;;;;;;5038231;28;20025;-87
2021/07/03 20:17:12;;;;;;;7.40;3.92;;;;;;;;;;5020177;28;20025;-89
2021/07/03 20:19:38;;;;;;;8.65;5.00;;;;;;;;;;5037218;28;20025;-89
2021/07/03 20:22:04;;;;;;;7.82;5.35;;;;;;;;;;5019574;28;20037;-90
2021/07/03 20:24:30;;;;;;;10.80;5.78;;;;;;;;;;5037098;28;20430;-89
2021/07/03 20:26:56;;;;;;;12.05;5.60;;;;;;;;;;5019628;28;20412;-88
2021/07/03 20:29:23;;;;;;;14.95;6.82;;;;;;;;;;5023266;28;20037;-89
2021/07/03 20:31:50;;;;;;;14.90;7.47;;;;;;;;;;5041257;28;20101;-88
2021/07/03 20:34:19;;;;;;;10.68;7.05;;;;;;;;;;5040768;28;20025;-88
2021/07/03 20:36:48;;;;;;;13.20;5.68;;;;;;;;;;5041002;28;20036;-88
2021/07/03 20:39:14;;;;;;;9.15;4.75;;;;;;;;;;5023406;28;20091;-89
2021/07/03 20:41:40;;;;;;;15.13;10.68;;;;;;;;;;5023062;28;20045;-88
2021/07/03 20:44:07;;;;;;;9.55;5.13;;;;;;;;;;5023061;28;20434;-88
2021/07/03 20:46:33;;;;;;;8.45;4.95;;;;;;;;;;5040145;28;20079;-89
2021/07/03 20:48:59;;;;;;;7.32;5.15;;;;;;;;;;5040560;28;20047;-89
2021/07/03 20:51:26;;;;;;;7.80;5.82;;;;;;;;;;5040865;28;20034;-89
2021/07/03 20:53:54;;;;;;;8.98;5.00;;;;;;;;;;5040245;28;20474;-90
2021/07/03 20:56:20;;;;;;;6.70;4.68;;;;;;;;;;5040362;28;20032;-89
2021/07/03 20:58:47;;;;;;;13.30;6.63;;;;;;;;;;5022968;28;20026;-88
2021/07/03 21:01:13;;;;;;;12.23;7.40;;;;;;;;;;5040475;28;20029;-89
2021/07/03 21:03:39;;;;;;;10.27;5.53;;;;;;;;;;5022950;28;20022;-88
2021/07/03 21:06:05;;;;;;;11.32;5.47;;;;;;;;;;5022578;28;20039;-89
2021/07/03 21:08:31;;;;;;;9.10;5.90;;;;;;;;;;5040407;28;20049;-89
2021/07/03 21:10:57;;;;;;;9.55;5.95;;;;;;;;;;5040286;28;20037;-89
2021/07/03 21:13:23;;;;;;;11.13;5.38;;;;;;;;;;5040073;28;20033;-89
2021/07/03 21:15:49;;;;;;;8.98;5.30;;;;;;;;;;5039707;28;20112;-89
2021/07/03 21:18:16;;;;;;;7.45;5.13;;;;;;;;;;5040147;28;20029;-90
2021/07/03 21:20:42;;;;;;;13.05;5.50;;;;;;;;;;5040089;28;20028;-89
2021/07/03 21:23:08;;;;;;;12.25;5.57;;;;;;;;;;5022475;28;20026;-89
2021/07/03 21:25:34;;;;;;;7.95;5.07;;;;;;;;;;5039942;28;20026;-89
2021/07/03 21:28:00;;;;;;;10.45;5.07;;;;;;;;;;5039868;28;20096;-91
2021/07/03 21:30:29;;;;;;;17.98;10.57;;;;;;;;;;5039971;28;20029;-90
2021/07/03 21:32:55;;;;;;;13.82;8.95;;;;;;;;;;5022377;28;20028;-90
2021/07/03 21:35:22;;;;;;;8.20;5.28;;;;;;;;;;5022021;28;20041;-88
2021/07/03 21:37:49;;;;;;;12.63;5.43;;;;;;;;;;5039661;28;20030;-89
2021/07/03 21:40:18;;;;;;;12.98;6.97;;;;;;;;;;5022123;28;20056;-89
2021/07/03 21:42:45;;;;;;;14.05;7.63;;;;;;;;;;5039578;28;20024;-89
2021/07/03 21:45:11;;;;;;;12.25;5.78;;;;;;;;;;5039435;28;20026;-89
2021/07/03 21:47:37;;;;;;;9.45;6.40;;;;;;;;;;5039392;28;20018;-88
2021/07/03 21:50:04;;;;;;;12.95;7.25;;;;;;;;;;5039624;28;20022;-90
2021/07/03 21:52:30;;;;;;;16.95;12.05;;;;;;;;;;5039490;28;20404;-88
2021/07/03 21:54:56;;;;;;;13.02;6.43;;;;;;;;;;5039821;28;20068;-89
2021/07/03 21:57:22;;;;;;;10.55;6.07;;;;;;;;;;5021958;28;20028;-89
2021/07/03 21:59:48;;;;;;;10.63;6.07;;;;;;;;;;5021784;28;20018;-89
2021/07/03 22:02:14;;;;;;;11.52;6.65;;;;;;;;;;5039285;28;20052;-88
2021/07/03 22:04:40;;;;;;;11.32;6.53;;;;;;;;;;5039634;28;20018;-89
2021/07/03 22:07:07;;;;;;;10.13;5.53;;;;;;;;;;5027853;28;20024;-89
2021/07/03 22:09:33;;;;;;;8.80;5.30;;;;;;;;;;5043331;28;20422;-88
2021/07/03 22:11:59;;;;;;;11.55;5.40;;;;;;;;;;5021677;28;20040;-89
2021/07/03 22:14:25;;;;;;;8.40;5.70;;;;;;;;;;5021104;28;20038;-90
2021/07/03 22:16:51;;;;;;;7.57;5.32;;;;;;;;;;5039018;28;20030;-89
2021/07/03 22:19:18;;;;;;;9.65;6.03;;;;;;;;;;5039000;28;20051;-89
2021/07/03 22:21:45;;;;;;;13.50;5.35;;;;;;;;;;5021284;28;20085;-89
2021/07/03 22:24:11;;;;;;;9.23;5.35;;;;;;;;;;5020767;28;20030;-89
2021/07/03 22:26:37;;;;;;;10.60;5.03;;;;;;;;;;5020971;28;20415;-89
2021/07/03 22:29:05;;;;;;;7.22;6.03;;;;;;;;;;5038877;28;20414;-90
2021/07/03 22:31:32;;;;;;;10.38;5.28;;;;;;;;;;5021451;28;20426;-89
2021/07/03 22:33:58;;;;;;;13.85;6.30;;;;;;;;;;5038760;28;20370;-88
2021/07/03 22:36:24;;;;;;;12.50;4.95;;;;;;;;;;5038346;28;20431;-90
2021/07/03 22:38:50;;;;;;;9.32;5.10;;;;;;;;;;5038500;28;20041;-89
2021/07/03 22:41:16;;;;;;;9.98;5.03;;;;;;;;;;5038011;28;20057;-86
2021/07/03 22:43:42;;;;;;;7.03;4.72;;;;;;;;;;5038495;28;20024;-90
2021/07/03 22:46:09;;;;;;;8.68;4.70;;;;;;;;;;5022379;28;20021;-90
2021/07/03 22:48:35;;;;;;;9.60;5.00;;;;;;;;;;5037202;28;20056;-90
2021/07/03 22:51:01;;;;;;;11.75;4.85;;;;;;;;;;5037706;28;20030;-89
2021/07/03 22:53:27;;;;;;;8.18;4.88;;;;;;;;;;5038453;28;20296;-90
2021/07/03 22:55:54;;;;;;;11.65;5.10;;;;;;;;;;5038094;28;20025;-90
2021/07/03 22:58:21;;;;;;;9.38;4.80;;;;;;;;;;5038084;28;20053;-89
2021/07/03 23:00:47;;;;;;;7.90;4.85;;;;;;;;;;5037934;28;20025;-89
2021/07/03 23:03:13;;;;;;;10.15;5.38;;;;;;;;;;5037851;28;20457;-90
2021/07/03 23:05:39;;;;;;;10.15;4.53;;;;;;;;;;5037898;28;20048;-90
2021/07/03 23:08:06;;;;;;;14.65;4.97;;;;;;;;;;5037826;28;20030;-89
2021/07/03 23:10:33;;;;;;;10.75;5.38;;;;;;;;;;5036918;28;20034;-91
2021/07/03 23:13:00;;;;;;;11.52;4.88;;;;;;;;;;5037724;28;20029;-89
2021/07/03 23:15:26;;;;;;;8.05;4.97;;;;;;;;;;5037697;28;20028;-90
2021/07/03 23:17:52;;;;;;;10.40;5.22;;;;;;;;;;5037921;28;20359;-90
2021/07/03 23:20:21;;;;;;;8.35;5.00;;;;;;;;;;5020339;28;20097;-90
2021/07/03 23:22:49;;;;;;;11.55;6.43;;;;;;;;;;5037521;28;20072;-90
2021/07/03 23:25:17;;;;;;;10.50;7.20;;;;;;;;;;5037459;28;20029;-90
2021/07/03 23:27:43;;;;;;;11.63;7.57;;;;;;;;;;5037451;28;20021;-91
2021/07/03 23:30:11;;;;;;;12.45;6.80;;;;;;;;;;5020265;28;20053;-89
2021/07/03 23:32:37;;;;;;;12.13;8.55;;;;;;;;;;5037587;28;20045;-89
2021/07/03 23:35:03;;;;;;;11.70;7.43;;;;;;;;;;5037562;28;20022;-91
2021/07/03 23:37:30;;;;;;;16.48;7.22;;;;;;;;;;5037759;28;20022;-90
2021/07/03 23:39:56;;;;;;;14.40;7.60;;;;;;;;;;5037440;28;20032;-90
2021/07/03 23:42:22;;;;;;;9.40;6.68;;;;;;;;;;5037416;28;20033;-90
2021/07/03 23:44:48;;;;;;;10.13;6.07;;;;;;;;;;5037818;28;20026;-90
2021/07/03 23:47:15;;;;;;;9.20;6.63;;;;;;;;;;5020292;28;20019;-90
2021/07/03 23:49:41;;;;;;;10.07;6.32;;;;;;;;;;5037562;28;20024;-90
2021/07/03 23:52:07;;;;;;;9.70;6.28;;;;;;;;;;5037705;28;20045;-90
2021/07/03 23:54:33;;;;;;;12.07;6.40;;;;;;;;;;5037638;28;20076;-89
2021/07/03 23:56:59;;;;;;;13.75;7.97;;;;;;;;;;5037617;28;20108;-89
2021/07/03 23:59:26;;;;;;;13.10;6.90;;;;;;;;;;5020379;28;20043;-90
